Time,TemperatureF,DewpointF,PressureIn,WindDirection,WindDirectionDegrees,WindSpeedMPH,WindSpeedGustMPH,Humidity,HourlyPrecipIn,Conditions,Clouds,dailyrainin,SoftwareType,DateUTC
2013-07-04 10:15:00,82.2,48.6,28.67,SSW,202,8.7,10.5,31,0.00,,,0.00,VWS V14.01,2013-07-04 15:15:00,
2013-07-04 10:20:00,82.6,48.0,28.67,SSW,202,6.3,8.7,30,0.00,,,0.00,VWS V14.01,2013-07-04 15:20:00,
2013-07-04 10:25:00,83.1,48.5,28.67,SSW,202,6.5,9.8,30,0.00,,,0.00,VWS V14.01,2013-07-04 15:25:00,
2013-07-04 10:30:00,83.3,49.5,28.67,SSW,202,6.0,10.5,31,0.00,,,0.00,VWS V14.01,2013-07-04 15:30:00,
2013-07-04 10:35:00,83.3,48.7,28.67,SSW,202,4.9,9.8,30,0.00,,,0.00,VWS V14.01,2013-07-04 15:35:00,
2013-07-04 10:40:00,83.5,48.8,28.67,SSW,202,5.4,8.7,30,0.00,,,0.00,VWS V14.01,2013-07-04 15:40:00,
2013-07-04 10:45:00,84.0,49.3,28.70,SW,225,7.8,9.0,30,0.00,,,0.00,VWS V14.01,2013-07-04 15:45:00,
2013-07-04 10:50:00,84.0,49.3,28.70,SSW,202,8.5,9.8,30,0.00,,,0.00,VWS V14.01,2013-07-04 15:50:00,
2013-07-04 10:55:00,84.0,48.4,28.70,SSW,202,9.8,9.8,29,0.00,,,0.00,VWS V14.01,2013-07-04 15:55:00,
2013-07-04 11:00:00,84.4,48.7,28.67,SSW,202,10.7,12.8,29,0.00,,,0.00,VWS V14.01,2013-07-04 16:00:00,
2013-07-04 11:05:00,84.2,48.5,28.67,SSW,202,14.8,15.2,29,0.00,,,0.00,VWS V14.01,2013-07-04 16:05:00,
2013-07-04 11:10:00,84.7,49.0,28.67,SSW,202,5.8,14.8,29,0.00,,,0.00,VWS V14.01,2013-07-04 16:10:00,
2013-07-04 11:15:00,85.1,49.3,28.67,SW,225,6.5,10.3,29,0.00,,,0.00,VWS V14.01,2013-07-04 16:15:00,
2013-07-04 11:20:00,85.1,49.3,28.67,SSE,158,6.3,9.8,29,0.00,,,0.00,VWS V14.01,2013-07-04 16:20:00,
2013-07-04 11:25:00,85.5,49.6,28.67,SSW,202,8.7,9.6,29,0.00,,,0.00,VWS V14.01,2013-07-04 16:25:00,
2013-07-04 11:30:00,85.1,48.4,28.67,SSW,202,6.5,13.0,28,0.00,,,0.00,VWS V14.01,2013-07-04 16:30:00,
2013-07-04 11:35:00,85.8,49.9,28.67,SSW,202,10.5,12.1,29,0.00,,,0.00,VWS V14.01,2013-07-04 16:35:00,
2013-07-04 11:40:00,86.2,49.3,28.67,South,180,10.7,10.7,28,0.00,,,0.00,VWS V14.01,2013-07-04 16:40:00,
2013-07-04 11:45:00,85.8,49.9,28.67,SSW,202,9.8,12.3,29,0.00,,,0.00,VWS V14.01,2013-07-04 16:45:00,
2013-07-04 11:50:00,86.0,49.1,28.67,South,180,10.3,10.3,28,0.00,,,0.00,VWS V14.01,2013-07-04 16:50:00,
2013-07-04 11:55:00,85.6,48.8,28.67,SW,225,5.4,12.5,28,0.00,,,0.00,VWS V14.01,2013-07-04 16:55:00,
2013-07-04 12:00:00,86.4,49.4,28.67,SSW,202,10.3,11.0,28,0.00,,,0.00,VWS V14.01,2013-07-04 17:00:00,
2013-07-04 12:05:00,86.0,47.2,28.67,SSW,202,10.3,13.0,26,0.00,,,0.00,VWS V14.01,2013-07-04 17:05:00,
2013-07-04 12:10:00,86.5,47.6,28.67,SW,225,7.4,13.0,26,0.00,,,0.00,VWS V14.01,2013-07-04 17:10:00,
2013-07-04 12:15:00,86.5,47.6,28.67,SW,225,11.9,11.9,26,0.00,,,0.00,VWS V14.01,2013-07-04 17:15:00,
2013-07-04 12:20:00,86.5,47.6,28.67,SSW,202,10.3,13.4,26,0.00,,,0.00,VWS V14.01,2013-07-04 17:20:00,
2013-07-04 12:25:00,87.1,48.1,28.67,South,180,7.8,12.8,26,0.00,,,0.00,VWS V14.01,2013-07-04 17:25:00,
2013-07-04 12:30:00,87.1,49.1,28.67,SSE,158,10.1,16.8,27,0.00,,,0.00,VWS V14.01,2013-07-04 17:30:00,
2013-07-04 12:35:00,87.4,48.4,28.67,SW,225,8.7,14.1,26,0.00,,,0.00,VWS V14.01,2013-07-04 17:35:00,
2013-07-04 12:40:00,87.3,48.2,28.67,SSW,202,8.1,12.1,26,0.00,,,0.00,VWS V14.01,2013-07-04 17:40:00,
2013-07-04 12:45:00,87.3,48.2,28.67,SSW,202,9.2,12.5,26,0.00,,,0.00,VWS V14.01,2013-07-04 17:45:00,
2013-07-04 12:50:00,87.3,46.1,28.67,South,180,10.1,15.2,24,0.00,,,0.00,VWS V14.01,2013-07-04 17:50:00,
2013-07-04 12:55:00,87.6,47.5,28.67,SW,225,10.1,17.5,25,0.00,,,0.00,VWS V14.01,2013-07-04 17:55:00,
2013-07-04 13:00:00,87.6,47.5,28.67,SSW,202,7.4,14.5,25,0.00,,,0.00,VWS V14.01,2013-07-04 18:00:00,
2013-07-04 13:05:00,88.0,47.8,28.67,South,180,19.9,19.9,25,0.00,,,0.00,VWS V14.01,2013-07-04 18:05:00,
2013-07-04 13:10:00,88.0,46.7,28.67,SSW,202,17.7,19.9,24,0.00,,,0.00,VWS V14.01,2013-07-04 18:10:00,
2013-07-04 13:15:00,88.2,44.6,28.64,SW,225,8.1,17.7,22,0.00,,,0.00,VWS V14.01,2013-07-04 18:15:00,
2013-07-04 13:20:00,88.3,44.7,28.64,SSW,202,7.2,16.8,22,0.00,,,0.00,VWS V14.01,2013-07-04 18:20:00,
2013-07-04 13:25:00,88.3,44.7,28.64,South,180,15.7,19.9,22,0.00,,,0.00,VWS V14.01,2013-07-04 18:25:00,
2013-07-04 13:30:00,88.7,45.0,28.64,South,180,10.3,15.7,22,0.00,,,0.00,VWS V14.01,2013-07-04 18:30:00,
2013-07-04 13:35:00,88.7,45.0,28.64,South,180,12.1,17.5,22,0.00,,,0.00,VWS V14.01,2013-07-04 18:35:00,
2013-07-04 13:40:00,88.7,43.8,28.64,South,180,18.8,21.5,21,0.00,,,0.00,VWS V14.01,2013-07-04 18:40:00,
2013-07-04 13:45:00,88.7,45.0,28.64,SSW,202,8.5,18.8,22,0.00,,,0.00,VWS V14.01,2013-07-04 18:45:00,
2013-07-04 13:50:00,88.5,43.6,28.64,SSE,158,12.5,22.8,21,0.00,,,0.00,VWS V14.01,2013-07-04 18:50:00,
2013-07-04 13:55:00,88.7,45.0,28.64,SSE,158,13.6,19.9,22,0.00,,,0.00,VWS V14.01,2013-07-04 18:55:00,
2013-07-04 14:00:00,88.5,43.6,28.64,South,180,6.3,19.9,21,0.00,,,0.00,VWS V14.01,2013-07-04 19:00:00,
2013-07-04 14:05:00,89.4,45.6,28.64,SSW,202,5.6,12.3,22,0.00,,,0.00,VWS V14.01,2013-07-04 19:05:00,
2013-07-04 14:10:00,89.1,44.1,28.64,SSW,202,11.2,17.9,21,0.00,,,0.00,VWS V14.01,2013-07-04 19:10:00,
2013-07-04 14:15:00,88.7,42.5,28.67,SSW,202,15.4,15.4,20,0.00,,,0.00,VWS V14.01,2013-07-04 19:15:00,
2013-07-04 14:20:00,88.2,43.3,28.67,SSE,158,13.6,17.0,21,0.00,,,0.00,VWS V14.01,2013-07-04 19:20:00,
2013-07-04 14:25:00,88.9,43.9,28.67,South,180,12.1,19.2,21,0.00,,,0.00,VWS V14.01,2013-07-04 19:25:00,
2013-07-04 14:30:00,88.5,42.4,28.64,SSW,202,13.2,19.0,20,0.00,,,0.00,VWS V14.01,2013-07-04 19:30:00,
2013-07-04 14:35:00,89.4,44.4,28.64,SSE,158,12.8,14.8,21,0.00,,,0.00,VWS V14.01,2013-07-04 19:35:00,
2013-07-04 14:40:00,89.1,42.8,28.64,SSW,202,14.1,27.1,20,0.00,,,0.00,VWS V14.01,2013-07-04 19:40:00,
2013-07-04 14:45:00,88.9,42.7,28.64,SSE,158,19.0,19.7,20,0.00,,,0.00,VWS V14.01,2013-07-04 19:45:00,
2013-07-04 14:50:00,89.6,43.3,28.64,SSW,202,11.0,19.9,20,0.00,,,0.00,VWS V14.01,2013-07-04 19:50:00,
2013-07-04 14:55:00,89.1,42.8,28.64,SSW,202,13.6,17.9,20,0.00,,,0.00,VWS V14.01,2013-07-04 19:55:00,
2013-07-04 15:00:00,88.9,43.9,28.64,SSE,158,10.5,17.2,21,0.00,,,0.00,VWS V14.01,2013-07-04 20:00:00,
2013-07-04 15:05:00,88.3,42.2,28.64,SSE,158,14.8,23.5,20,0.00,,,0.00,VWS V14.01,2013-07-04 20:05:00,
2013-07-04 15:10:00,88.5,42.4,28.64,SSW,202,9.4,19.9,20,0.00,,,0.00,VWS V14.01,2013-07-04 20:10:00,
2013-07-04 15:15:00,88.7,42.5,28.64,SSW,202,9.8,17.5,20,0.00,,,0.00,VWS V14.01,2013-07-04 20:15:00,
2013-07-04 15:20:00,88.7,42.5,28.64,SSW,202,8.7,15.2,20,0.00,,,0.00,VWS V14.01,2013-07-04 20:20:00,
2013-07-04 15:25:00,88.9,42.7,28.64,SSE,158,17.2,22.4,20,0.00,,,0.00,VWS V14.01,2013-07-04 20:25:00,
2013-07-04 15:30:00,88.7,42.5,28.64,SSE,158,17.2,23.5,20,0.00,,,0.00,VWS V14.01,2013-07-04 20:30:00,
2013-07-04 15:35:00,89.1,42.8,28.64,SW,225,8.7,17.2,20,0.00,,,0.00,VWS V14.01,2013-07-04 20:35:00,
2013-07-04 15:40:00,89.4,43.1,28.64,SW,225,14.5,18.1,20,0.00,,,0.00,VWS V14.01,2013-07-04 20:40:00,
2013-07-04 15:45:00,89.2,43.0,28.64,SSW,202,10.5,17.2,20,0.00,,,0.00,VWS V14.01,2013-07-04 20:45:00,
2013-07-04 15:50:00,89.2,43.0,28.64,SSW,202,13.0,13.0,20,0.00,,,0.00,VWS V14.01,2013-07-04 20:50:00,
2013-07-04 15:55:00,89.2,43.0,28.64,SSW,202,10.7,17.2,20,0.00,,,0.00,VWS V14.01,2013-07-04 20:55:00,
2013-07-04 16:00:00,89.1,41.5,28.64,South,180,12.8,21.3,19,0.00,,,0.00,VWS V14.01,2013-07-04 21:00:00,
2013-07-04 16:05:00,89.6,43.3,28.64,South,180,10.7,19.5,20,0.00,,,0.00,VWS V14.01,2013-07-04 21:05:00,
2013-07-04 16:10:00,89.4,43.1,28.64,SSW,202,12.8,15.9,20,0.00,,,0.00,VWS V14.01,2013-07-04 21:10:00,
2013-07-04 16:15:00,89.2,43.0,28.64,South,180,12.1,15.9,20,0.00,,,0.00,VWS V14.01,2013-07-04 21:15:00,
2013-07-04 16:20:00,88.9,42.7,28.64,SW,225,10.7,17.5,20,0.00,,,0.00,VWS V14.01,2013-07-04 21:20:00,
2013-07-04 16:25:00,89.1,42.8,28.64,South,180,14.5,21.3,20,0.00,,,0.00,VWS V14.01,2013-07-04 21:25:00,
2013-07-04 16:30:00,88.7,42.5,28.64,SSW,202,14.8,16.3,20,0.00,,,0.00,VWS V14.01,2013-07-04 21:30:00,
2013-07-04 16:35:00,88.5,42.4,28.64,South,180,17.7,17.7,20,0.00,,,0.00,VWS V14.01,2013-07-04 21:35:00,
2013-07-04 16:40:00,88.3,40.9,28.64,SSW,202,17.0,17.7,19,0.00,,,0.00,VWS V14.01,2013-07-04 21:40:00,
2013-07-04 16:45:00,88.5,42.4,28.64,SSW,202,9.4,20.6,20,0.00,,,0.00,VWS V14.01,2013-07-04 21:45:00,
2013-07-04 16:50:00,88.7,42.5,28.64,SSW,202,8.7,14.1,20,0.00,,,0.00,VWS V14.01,2013-07-04 21:50:00,
2013-07-04 16:55:00,88.3,42.2,28.64,South,180,17.7,19.7,20,0.00,,,0.00,VWS V14.01,2013-07-04 21:55:00,
2013-07-04 17:00:00,88.0,41.9,28.64,South,180,12.8,22.4,20,0.00,,,0.00,VWS V14.01,2013-07-04 22:00:00,
2013-07-04 17:05:00,87.8,40.5,28.64,SSE,158,13.6,19.7,19,0.00,,,0.00,VWS V14.01,2013-07-04 22:05:00,
2013-07-04 17:10:00,87.1,41.2,28.64,SSE,158,16.3,19.2,20,0.00,,,0.00,VWS V14.01,2013-07-04 22:10:00,
2013-07-04 17:15:00,86.4,40.6,28.64,South,180,12.8,19.7,20,0.00,,,0.00,VWS V14.01,2013-07-04 22:15:00,
2013-07-04 17:20:00,87.3,41.3,28.64,SSW,202,8.5,18.6,20,0.00,,,0.00,VWS V14.01,2013-07-04 22:20:00,
2013-07-04 17:25:00,87.3,41.3,28.64,South,180,23.5,23.5,20,0.00,,,0.00,VWS V14.01,2013-07-04 22:25:00,
2013-07-04 17:30:00,87.3,42.6,28.64,South,180,18.1,23.5,21,0.00,,,0.00,VWS V14.01,2013-07-04 22:30:00,
2013-07-04 17:35:00,87.3,42.6,28.64,South,180,15.2,18.1,21,0.00,,,0.00,VWS V14.01,2013-07-04 22:35:00,
2013-07-04 17:40:00,87.1,41.2,28.64,SSE,158,15.9,19.7,20,0.00,,,0.00,VWS V14.01,2013-07-04 22:40:00,
2013-07-04 17:45:00,86.9,42.3,28.61,South,180,17.2,22.4,21,0.00,,,0.00,VWS V14.01,2013-07-04 22:45:00,
2013-07-04 17:50:00,86.5,42.0,28.61,SSE,158,14.5,23.7,21,0.00,,,0.00,VWS V14.01,2013-07-04 22:50:00,
2013-07-04 17:55:00,86.5,42.0,28.61,SSW,202,13.6,22.2,21,0.00,,,0.00,VWS V14.01,2013-07-04 22:55:00,
2013-07-04 18:00:00,86.4,41.9,28.61,South,180,16.3,21.0,21,0.00,,,0.00,VWS V14.01,2013-07-04 23:00:00,
2013-07-04 18:05:00,86.4,41.9,28.61,SSW,202,15.7,19.2,21,0.00,,,0.00,VWS V14.01,2013-07-04 23:05:00,
2013-07-04 18:10:00,86.0,41.6,28.61,SSW,202,17.5,22.6,21,0.00,,,0.00,VWS V14.01,2013-07-04 23:10:00,
2013-07-04 18:15:00,86.2,41.7,28.61,SSW,202,11.9,20.4,21,0.00,,,0.00,VWS V14.01,2013-07-04 23:15:00,
2013-07-04 18:20:00,86.0,41.6,28.61,SSW,202,13.2,18.1,21,0.00,,,0.00,VWS V14.01,2013-07-04 23:20:00,
2013-07-04 18:25:00,85.8,41.4,28.61,South,180,13.2,17.0,21,0.00,,,0.00,VWS V14.01,2013-07-04 23:25:00,
2013-07-04 18:30:00,85.6,41.3,28.61,SSE,158,18.1,20.1,21,0.00,,,0.00,VWS V14.01,2013-07-04 23:30:00,
2013-07-04 18:35:00,85.5,41.1,28.61,SSE,158,19.5,19.9,21,0.00,,,0.00,VWS V14.01,2013-07-04 23:35:00,
2013-07-04 18:40:00,85.1,40.8,28.61,South,180,20.1,22.8,21,0.00,,,0.00,VWS V14.01,2013-07-04 23:40:00,
2013-07-04 18:45:00,85.1,40.8,28.61,South,180,20.1,20.1,21,0.00,,,0.00,VWS V14.01,2013-07-04 23:45:00,
2013-07-04 18:50:00,84.7,40.5,28.61,South,180,17.2,20.1,21,0.00,,,0.00,VWS V14.01,2013-07-04 23:50:00,
2013-07-04 18:55:00,84.7,41.7,28.61,SSW,202,14.3,19.0,22,0.00,,,0.00,VWS V14.01,2013-07-04 23:55:00,
2013-07-04 19:00:00,84.6,41.6,28.61,SSW,202,13.0,17.0,22,0.00,,,0.00,VWS V14.01,2013-07-05 00:00:00,
2013-07-04 19:05:00,84.4,40.2,28.61,SSW,202,15.2,15.2,21,0.00,,,0.00,VWS V14.01,2013-07-05 00:05:00,
2013-07-04 19:10:00,84.4,41.4,28.61,SSW,202,10.3,19.0,22,0.00,,,0.00,VWS V14.01,2013-07-05 00:10:00,
2013-07-04 19:15:00,84.0,41.1,28.61,South,180,14.8,19.7,22,0.00,,,0.00,VWS V14.01,2013-07-05 00:15:00,
2013-07-04 19:20:00,83.5,40.7,28.61,SSE,158,19.5,19.9,22,0.00,,,0.00,VWS V14.01,2013-07-05 00:20:00,
2013-07-04 19:25:00,83.1,40.4,28.61,SSE,158,15.7,19.5,22,0.00,,,0.00,VWS V14.01,2013-07-05 00:25:00,
2013-07-04 19:30:00,83.3,40.5,28.61,South,180,10.7,15.9,22,0.00,,,0.00,VWS V14.01,2013-07-05 00:30:00,
2013-07-04 19:35:00,83.1,40.4,28.61,SSE,158,15.4,15.4,22,0.00,,,0.00,VWS V14.01,2013-07-05 00:35:00,
2013-07-04 19:40:00,82.8,40.1,28.61,SSE,158,16.3,16.8,22,0.00,,,0.00,VWS V14.01,2013-07-05 00:40:00,
2013-07-04 19:45:00,82.9,41.4,28.61,SSW,202,13.0,16.3,23,0.00,,,0.00,VWS V14.01,2013-07-05 00:45:00,
2013-07-04 19:50:00,82.6,41.1,28.61,South,180,12.3,14.5,23,0.00,,,0.00,VWS V14.01,2013-07-05 00:50:00,
2013-07-04 19:55:00,82.0,40.6,28.61,South,180,12.5,13.2,23,0.00,,,0.00,VWS V14.01,2013-07-05 00:55:00,
2013-07-04 20:00:00,81.5,40.2,28.61,SSE,158,10.7,14.3,23,0.00,,,0.00,VWS V14.01,2013-07-05 01:00:00,
2013-07-04 20:05:00,81.0,40.8,28.61,SSE,158,10.7,13.2,24,0.00,,,0.00,VWS V14.01,2013-07-05 01:05:00,
2013-07-04 20:10:00,80.4,40.4,28.61,SSE,158,12.3,12.5,24,0.00,,,0.00,VWS V14.01,2013-07-05 01:10:00,
2013-07-04 20:15:00,80.4,41.4,28.61,SSE,158,9.8,14.1,25,0.00,,,0.00,VWS V14.01,2013-07-05 01:15:00,
2013-07-04 20:20:00,80.2,41.3,28.61,SSE,158,10.7,13.2,25,0.00,,,0.00,VWS V14.01,2013-07-05 01:20:00,
2013-07-04 20:25:00,79.7,40.8,28.61,SSE,158,9.2,12.8,25,0.00,,,0.00,VWS V14.01,2013-07-05 01:25:00,
2013-07-04 20:30:00,79.2,41.4,28.61,SSE,158,7.4,12.5,26,0.00,,,0.00,VWS V14.01,2013-07-05 01:30:00,
2013-07-04 20:35:00,78.3,42.5,28.61,SSE,158,7.8,8.5,28,0.00,,,0.00,VWS V14.01,2013-07-05 01:35:00,
2013-07-04 20:40:00,77.5,42.8,28.61,South,180,7.4,10.1,29,0.00,,,0.00,VWS V14.01,2013-07-05 01:40:00,
2013-07-04 20:45:00,77.2,43.4,28.61,SSE,158,6.3,10.3,30,0.00,,,0.00,VWS V14.01,2013-07-05 01:45:00,
2013-07-04 20:50:00,77.0,43.2,28.61,SSE,158,7.4,9.0,30,0.00,,,0.00,VWS V14.01,2013-07-05 01:50:00,
2013-07-04 20:55:00,76.5,43.6,28.61,SSE,158,9.4,10.3,31,0.00,,,0.00,VWS V14.01,2013-07-05 01:55:00,
2013-07-04 21:00:00,76.1,43.3,28.61,SSE,158,6.0,9.4,31,0.00,,,0.00,VWS V14.01,2013-07-05 02:00:00,
2013-07-04 21:05:00,75.6,43.7,28.61,SSE,158,7.6,8.7,32,0.00,,,0.00,VWS V14.01,2013-07-05 02:05:00,
2013-07-04 21:10:00,75.2,43.3,28.61,SSE,158,5.6,7.6,32,0.00,,,0.00,VWS V14.01,2013-07-05 02:10:00,
2013-07-04 21:15:00,74.7,43.7,28.61,SSE,158,5.6,8.1,33,0.00,,,0.00,VWS V14.01,2013-07-05 02:15:00,
2013-07-04 21:20:00,74.5,43.5,28.61,SSE,158,5.8,8.7,33,0.00,,,0.00,VWS V14.01,2013-07-05 02:20:00,
2013-07-04 21:25:00,79.7,40.8,28.61,SSE,158,9.2,12.8,25,0.00,,,0.00,VWS V14.01,2013-07-05 02:25:00,
2013-07-04 21:30:00,73.9,43.8,28.61,SSE,158,7.6,7.6,34,0.00,,,0.00,VWS V14.01,2013-07-05 02:30:00,
2013-07-04 21:35:00,73.6,43.5,28.61,SSE,158,7.8,8.1,34,0.00,,,0.00,VWS V14.01,2013-07-05 02:35:00,
2013-07-04 21:40:00,73.6,43.5,28.61,SSE,158,7.6,10.5,34,0.00,,,0.00,VWS V14.01,2013-07-05 02:40:00,
2013-07-04 21:45:00,73.4,44.1,28.61,SSE,158,10.7,10.7,35,0.00,,,0.00,VWS V14.01,2013-07-05 02:45:00,
2013-07-04 21:50:00,73.2,44.0,28.61,SSE,158,6.0,10.7,35,0.00,,,0.00,VWS V14.01,2013-07-05 02:50:00,
2013-07-04 21:55:00,73.0,44.5,28.61,South,180,7.8,8.5,36,0.00,,,0.00,VWS V14.01,2013-07-05 02:55:00,
2013-07-04 22:00:00,72.9,44.4,28.61,SSE,158,7.6,8.7,36,0.00,,,0.00,VWS V14.01,2013-07-05 03:00:00,
2013-07-04 22:05:00,72.7,44.9,28.61,SSE,158,7.4,9.6,37,0.00,,,0.00,VWS V14.01,2013-07-05 03:05:00,
2013-07-04 22:10:00,72.7,44.9,28.61,SSE,158,6.5,12.3,37,0.00,,,0.00,VWS V14.01,2013-07-05 03:10:00,
2013-07-04 22:15:00,72.5,44.8,28.64,SSE,158,8.1,10.5,37,0.00,,,0.00,VWS V14.01,2013-07-05 03:15:00,
2013-07-04 22:20:00,72.3,45.3,28.64,SSE,158,6.7,11.0,38,0.00,,,0.00,VWS V14.01,2013-07-05 03:20:00,
2013-07-04 22:25:00,72.3,45.3,28.64,SSE,158,8.1,10.7,38,0.00,,,0.00,VWS V14.01,2013-07-05 03:25:00,
2013-07-04 22:30:00,72.3,45.3,28.64,SSE,158,10.3,10.7,38,0.00,,,0.00,VWS V14.01,2013-07-05 03:30:00,
2013-07-04 22:35:00,72.1,45.2,28.64,SSE,158,8.5,10.3,38,0.00,,,0.00,VWS V14.01,2013-07-05 03:35:00,
2013-07-04 22:40:00,72.0,45.0,28.64,SSE,158,8.7,8.7,38,0.00,,,0.00,VWS V14.01,2013-07-05 03:40:00,
2013-07-04 22:45:00,72.1,45.2,28.64,SE,135,6.5,10.1,38,0.00,,,0.00,VWS V14.01,2013-07-05 03:45:00,
2013-07-04 22:50:00,72.1,45.2,28.64,SSE,158,7.6,10.1,38,0.00,,,0.00,VWS V14.01,2013-07-05 03:50:00,
2013-07-04 22:55:00,72.1,45.2,28.64,SSE,158,8.1,8.5,38,0.00,,,0.00,VWS V14.01,2013-07-05 03:55:00,
2013-07-04 23:00:00,72.1,45.2,28.64,SSE,158,10.1,11.4,38,0.00,,,0.00,VWS V14.01,2013-07-05 04:00:00,
2013-07-04 23:05:00,72.0,45.0,28.64,SE,135,8.5,10.5,38,0.00,,,0.00,VWS V14.01,2013-07-05 04:05:00,
2013-07-04 23:10:00,72.0,45.7,28.64,SSE,158,10.3,10.3,39,0.00,,,0.00,VWS V14.01,2013-07-05 04:10:00,
2013-07-04 23:15:00,72.0,45.7,28.64,SSE,158,8.7,12.5,39,0.00,,,0.00,VWS V14.01,2013-07-05 04:15:00,
2013-07-04 23:20:00,72.0,45.7,28.64,SSE,158,10.5,11.9,39,0.00,,,0.00,VWS V14.01,2013-07-05 04:20:00,
2013-07-04 23:25:00,72.0,45.7,28.64,SSE,158,7.8,13.4,39,0.00,,,0.00,VWS V14.01,2013-07-05 04:25:00,
2013-07-04 23:30:00,71.8,46.2,28.64,SSE,158,9.8,12.8,40,0.00,,,0.00,VWS V14.01,2013-07-05 04:30:00,
2013-07-04 23:35:00,71.4,46.5,28.64,SE,135,8.1,12.5,41,0.00,,,0.00,VWS V14.01,2013-07-05 04:35:00,
2013-07-04 23:40:00,71.4,46.5,28.64,SSE,158,12.5,12.5,41,0.00,,,0.00,VWS V14.01,2013-07-05 04:40:00,
2013-07-04 23:45:00,71.2,47.0,28.64,SSE,158,10.3,12.5,42,0.00,,,0.00,VWS V14.01,2013-07-05 04:45:00,
2013-07-04 23:50:00,71.2,47.0,28.64,SSE,158,10.1,13.0,42,0.00,,,0.00,VWS V14.01,2013-07-05 04:50:00,
2013-07-04 23:55:00,71.2,47.0,28.64,SSE,158,8.5,12.8,42,0.00,,,0.00,VWS V14.01,2013-07-05 04:55:00,